createdAt,value
2018-05-12T00:00:04.320Z,30.35
2018-05-12T00:01:05.429Z,28.62
2018-05-12T00:02:06.488Z,40.53
2018-05-12T00:03:07.564Z,26.50
2018-05-12T00:04:08.636Z,32.20
2018-05-12T00:05:10.464Z,28.00
2018-05-12T00:06:11.550Z,31.45
2018-05-12T00:07:12.622Z,35.92
2018-05-12T00:08:13.681Z,29.15
2018-05-12T00:09:15.499Z,26.23
2018-05-12T00:10:16.568Z,25.30
2018-05-12T00:11:18.367Z,28.02
2018-05-12T00:12:19.434Z,29.12
2018-05-12T00:13:20.483Z,25.50
2018-05-12T00:14:21.563Z,31.48
2018-05-12T00:15:22.640Z,25.10
2018-05-12T00:16:23.689Z,30.90
2018-05-12T00:17:24.734Z,27.92
2018-05-12T00:18:25.789Z,33.92
2018-05-12T00:19:26.873Z,32.10
2018-05-12T00:20:28.701Z,25.30
2018-05-12T00:21:29.766Z,27.27
2018-05-12T00:22:30.838Z,37.75
2018-05-12T00:23:31.910Z,26.50
2018-05-12T00:24:32.971Z,30.17
2018-05-12T00:25:34.033Z,28.45
2018-05-12T00:26:35.091Z,29.70
2018-05-12T00:27:36.156Z,29.25
2018-05-12T00:28:37.951Z,33.72
2018-05-12T00:29:39.047Z,27.83
2018-05-12T00:30:40.113Z,26.62
2018-05-12T00:31:41.167Z,30.85
2018-05-12T00:32:42.216Z,27.17
2018-05-12T00:33:43.267Z,27.98
2018-05-12T00:34:44.347Z,29.90
2018-05-12T00:35:45.420Z,25.67
2018-05-12T00:36:46.500Z,28.10
2018-05-12T00:37:47.581Z,27.85
2018-05-12T00:38:49.372Z,26.60
2018-05-12T00:39:50.440Z,31.92
2018-05-12T00:40:51.511Z,29.45
2018-05-12T00:41:52.576Z,31.48
2018-05-12T00:42:53.660Z,27.52
2018-05-12T00:43:54.699Z,28.62
2018-05-12T00:44:56.526Z,29.63
2018-05-12T00:45:57.583Z,31.80
2018-05-12T00:46:58.663Z,29.73
2018-05-12T00:47:59.737Z,31.25
2018-05-12T00:49:00.828Z,30.98
2018-05-12T00:50:01.903Z,30.23
2018-05-12T00:51:02.966Z,33.03
2018-05-12T00:52:04.054Z,30.58
2018-05-12T00:53:05.859Z,26.77
2018-05-12T00:54:06.915Z,31.20
2018-05-12T00:55:07.998Z,38.13
2018-05-12T00:56:09.068Z,33.53
2018-05-12T00:57:10.143Z,33.33
2018-05-12T00:58:11.211Z,37.95
2018-05-12T00:59:12.267Z,35.67
2018-05-12T01:00:13.337Z,41.65
2018-05-12T01:01:14.419Z,40.00
2018-05-12T01:02:15.493Z,37.13
2018-05-12T01:03:16.551Z,33.40
2018-05-12T01:04:17.659Z,34.35
2018-05-12T01:05:19.500Z,35.08
2018-05-12T01:06:20.555Z,35.00
2018-05-12T01:07:21.638Z,36.22
2018-05-12T01:08:22.735Z,29.10
2018-05-12T01:09:23.810Z,30.08
2018-05-12T01:10:24.879Z,31.87
2018-05-12T01:11:25.962Z,31.48
2018-05-12T01:12:27.045Z,36.50
2018-05-12T01:13:28.133Z,32.63
2018-05-12T01:14:29.199Z,34.30
2018-05-12T01:15:31.019Z,34.50
2018-05-12T01:16:32.085Z,37.17
2018-05-12T01:17:33.163Z,36.25
2018-05-12T01:18:34.235Z,37.35
2018-05-12T01:19:36.054Z,31.73
2018-05-12T01:20:37.128Z,31.92
2018-05-12T01:21:38.206Z,37.40
2018-05-12T01:22:39.287Z,36.17
2018-05-12T01:23:41.092Z,31.65
2018-05-12T01:24:42.172Z,35.83
2018-05-12T01:25:43.234Z,39.47
2018-05-12T01:26:44.319Z,33.90
2018-05-12T01:27:45.400Z,37.85
2018-05-12T01:28:46.451Z,46.17
2018-05-12T01:29:47.510Z,36.92
2018-05-12T01:30:48.579Z,33.72
2018-05-12T01:31:49.670Z,35.25
2018-05-12T01:32:50.739Z,39.28
2018-05-12T01:33:51.795Z,34.05
2018-05-12T01:34:52.878Z,39.92
2018-05-12T01:35:53.942Z,38.45
2018-05-12T01:36:54.999Z,31.73
2018-05-12T01:37:56.063Z,43.55
2018-05-12T01:38:57.148Z,33.80
2018-05-12T01:39:58.203Z,40.63
2018-05-12T01:40:59.291Z,32.38
2018-05-12T01:42:00.372Z,33.08
2018-05-12T01:43:01.444Z,37.53
2018-05-12T01:44:02.532Z,30.65
2018-05-12T01:45:03.608Z,32.75
2018-05-12T01:46:04.678Z,35.65
2018-05-12T01:47:05.768Z,40.33
2018-05-12T01:48:06.855Z,37.88
2018-05-12T01:49:07.931Z,37.30
2018-05-12T01:50:08.980Z,39.45
2018-05-12T01:51:10.806Z,34.53
2018-05-12T01:52:11.872Z,42.47
2018-05-12T01:53:12.960Z,46.25
2018-05-12T01:54:14.036Z,41.45
2018-05-12T01:55:15.149Z,36.15
2018-05-12T01:56:16.262Z,33.33
2018-05-12T01:57:17.345Z,49.83
2018-05-12T01:58:18.414Z,31.87
2018-05-12T01:59:19.480Z,37.90
2018-05-12T02:00:21.299Z,44.22
2018-05-12T02:01:22.370Z,37.85
2018-05-12T02:02:24.227Z,38.72
2018-05-12T02:03:25.312Z,35.78
2018-05-12T02:04:26.379Z,38.15
2018-05-12T02:05:28.190Z,33.20
2018-05-12T02:06:29.282Z,39.70
2018-05-12T02:07:30.360Z,39.67
2018-05-12T02:08:31.416Z,34.25
2018-05-12T02:09:33.207Z,38.60
2018-05-12T02:10:34.271Z,35.88
2018-05-12T02:11:35.350Z,36.47
2018-05-12T02:12:36.420Z,35.70
2018-05-12T02:13:37.483Z,47.40
2018-05-12T02:14:38.558Z,41.03
2018-05-12T02:15:39.618Z,33.35
2018-05-12T02:16:40.680Z,44.40
2018-05-12T02:17:41.776Z,35.80
2018-05-12T02:18:42.836Z,32.33
2018-05-12T02:19:43.916Z,33.85
2018-05-12T02:20:44.967Z,33.67
2018-05-12T02:21:46.044Z,39.30
2018-05-12T02:22:47.896Z,40.08
2018-05-12T02:23:48.957Z,41.17
2018-05-12T02:24:50.035Z,35.05
2018-05-12T02:25:51.120Z,38.72
2018-05-12T02:26:52.187Z,34.38
2018-05-12T02:27:53.248Z,37.35
2018-05-12T02:28:54.319Z,44.85
2018-05-12T02:29:55.394Z,34.80
2018-05-12T02:30:56.486Z,45.38
2018-05-12T02:31:57.571Z,39.80
2018-05-12T02:32:58.629Z,33.47
2018-05-12T02:34:00.437Z,43.58
2018-05-12T02:35:01.493Z,38.60
2018-05-12T02:36:02.572Z,34.05
2018-05-12T02:37:03.651Z,48.97
2018-05-12T02:38:04.724Z,46.30
2018-05-12T02:39:05.800Z,40.63
2018-05-12T02:40:06.865Z,34.00
2018-05-12T02:41:07.935Z,40.97
2018-05-12T02:42:09.015Z,35.40
2018-05-12T02:43:10.105Z,37.58
2018-05-12T02:44:11.163Z,40.03
2018-05-12T02:45:12.271Z,37.20
2018-05-12T02:46:14.079Z,39.78
2018-05-12T02:47:15.889Z,37.67
2018-05-12T02:48:16.936Z,38.70
2018-05-12T02:49:18.022Z,36.92
2018-05-12T02:50:19.083Z,40.38
2018-05-12T02:51:20.155Z,39.97
2018-05-12T02:52:21.243Z,41.17
2018-05-12T02:53:22.342Z,38.15
2018-05-12T02:54:23.415Z,38.47
2018-05-12T02:55:24.500Z,42.92
2018-05-12T02:56:25.598Z,42.88
2018-05-12T02:57:26.673Z,37.95
2018-05-12T02:58:27.759Z,39.60
2018-05-12T02:59:28.829Z,51.90
2018-05-12T03:00:30.664Z,39.42
2018-05-12T03:01:31.727Z,42.83
2018-05-12T03:02:32.786Z,37.53
2018-05-12T03:03:33.848Z,40.60
2018-05-12T03:04:34.928Z,36.10
2018-05-12T03:05:35.990Z,36.00
2018-05-12T03:06:37.063Z,39.90
2018-05-12T03:07:38.158Z,42.65
2018-05-12T03:08:39.227Z,36.47
2018-05-12T03:09:40.308Z,38.92
2018-05-12T03:10:41.363Z,32.75
2018-05-12T03:11:42.426Z,36.97
2018-05-12T03:12:43.503Z,40.08
2018-05-12T03:13:44.583Z,39.58
2018-05-12T03:14:45.680Z,35.25
2018-05-12T03:15:46.748Z,44.20
2018-05-12T03:16:48.563Z,34.08
2018-05-12T03:17:49.630Z,32.97
2018-05-12T03:18:50.695Z,33.05
2018-05-12T03:19:51.755Z,43.42
2018-05-12T03:20:52.828Z,38.10
2018-05-12T03:21:53.907Z,39.05
2018-05-12T03:22:55.003Z,34.72
2018-05-12T03:23:56.086Z,38.67
2018-05-12T03:24:57.148Z,40.90
2018-05-12T03:25:58.971Z,41.72
2018-05-12T03:27:00.038Z,34.65
2018-05-12T03:28:01.852Z,48.53
2018-05-12T03:29:02.927Z,35.05
2018-05-12T03:30:04.007Z,35.88
2018-05-12T03:31:05.084Z,35.58
2018-05-12T03:32:06.161Z,42.15
2018-05-12T03:33:07.254Z,42.28
2018-05-12T03:34:08.326Z,38.85
2018-05-12T03:35:09.403Z,43.00
2018-05-12T03:36:11.209Z,44.78
2018-05-12T03:37:12.266Z,39.83
2018-05-12T03:38:13.348Z,37.00
2018-05-12T03:39:14.412Z,38.22
2018-05-12T03:40:15.477Z,41.08
2018-05-12T03:41:16.565Z,46.63
2018-05-12T03:42:17.638Z,44.25
2018-05-12T03:43:19.478Z,40.10
2018-05-12T03:44:20.555Z,37.88
2018-05-12T03:45:21.666Z,46.03
2018-05-12T03:46:23.465Z,33.15
2018-05-12T03:47:24.528Z,36.90
2018-05-12T03:48:25.590Z,36.53
2018-05-12T03:49:26.655Z,35.13
2018-05-12T03:50:27.726Z,34.95
2018-05-12T03:51:28.811Z,41.70
2018-05-12T03:52:29.890Z,41.70
2018-05-12T03:53:30.983Z,43.05
2018-05-12T03:54:32.061Z,44.92
2018-05-12T03:55:33.159Z,44.58
2018-05-12T03:56:34.224Z,31.85
2018-05-12T03:57:35.322Z,39.83
2018-05-12T03:58:36.415Z,43.42
2018-05-12T03:59:37.479Z,41.92
2018-05-12T04:00:38.543Z,45.08
2018-05-12T04:01:39.627Z,39.78
2018-05-12T04:02:40.717Z,43.15
2018-05-12T04:03:41.796Z,44.83
2018-05-12T04:04:55.147Z,35.50
2018-05-12T04:06:09.238Z,34.13
2018-05-12T04:07:22.556Z,39.58
2018-05-12T04:08:37.427Z,36.33
2018-05-12T04:09:50.826Z,37.45
2018-05-12T04:11:04.243Z,45.20
2018-05-12T04:12:17.719Z,38.72
2018-05-12T04:13:18.815Z,36.58
2018-05-12T04:14:19.892Z,33.45
2018-05-12T04:15:20.968Z,34.05
2018-05-12T04:16:22.076Z,37.30
2018-05-12T04:17:23.116Z,40.10
2018-05-12T04:18:24.228Z,39.75
2018-05-12T04:19:25.295Z,44.55
2018-05-12T04:20:26.368Z,52.70
2018-05-12T04:21:27.430Z,37.63
2018-05-12T04:22:28.498Z,38.75
2018-05-12T04:23:29.573Z,37.33
2018-05-12T04:24:30.643Z,38.35
2018-05-12T04:25:32.451Z,43.92
2018-05-12T04:26:33.533Z,40.58
2018-05-12T04:27:34.592Z,39.38
2018-05-12T04:28:35.670Z,39.35
2018-05-12T04:29:36.737Z,37.67
2018-05-12T04:30:37.801Z,41.22
2018-05-12T04:31:38.886Z,33.88
2018-05-12T04:32:39.938Z,41.55
2018-05-12T04:33:40.999Z,41.15
2018-05-12T04:34:42.085Z,38.35
2018-05-12T04:35:43.163Z,48.60
2018-05-12T04:36:44.214Z,33.60
2018-05-12T04:37:45.279Z,40.03
2018-05-12T04:38:46.340Z,39.20
2018-05-12T04:39:48.165Z,37.92
2018-05-12T04:40:49.972Z,48.30
2018-05-12T04:41:51.032Z,38.50
2018-05-12T04:42:52.086Z,44.75
2018-05-12T04:43:53.154Z,38.85
2018-05-12T04:44:54.236Z,50.85
2018-05-12T04:45:55.308Z,36.58
2018-05-12T04:46:56.362Z,41.25
2018-05-12T04:47:57.451Z,43.30
2018-05-12T04:48:58.563Z,38.92
2018-05-12T04:50:00.363Z,43.38
2018-05-12T04:51:01.419Z,50.17
2018-05-12T04:52:02.508Z,42.25
2018-05-12T04:53:03.604Z,48.58
2018-05-12T04:54:04.690Z,40.10
2018-05-12T04:55:06.515Z,39.80
2018-05-12T04:56:07.748Z,39.70
2018-05-12T04:57:09.619Z,46.53
2018-05-12T04:58:10.752Z,44.45
2018-05-12T04:59:11.847Z,38.70
2018-05-12T05:00:12.987Z,43.10
2018-05-12T05:01:14.155Z,40.60
2018-05-12T05:02:15.251Z,38.70
2018-05-12T05:03:16.356Z,37.38
2018-05-12T05:04:17.470Z,43.10
2018-05-12T05:05:18.651Z,54.80
2018-05-12T05:06:19.744Z,39.03
2018-05-12T05:07:20.876Z,46.63
2018-05-12T05:08:21.954Z,34.72
2018-05-12T05:09:23.030Z,37.35
2018-05-12T05:10:24.111Z,52.35
2018-05-12T05:11:25.916Z,45.70
2018-05-12T05:12:27.004Z,41.08
2018-05-12T05:13:28.091Z,46.03
2018-05-12T05:14:29.159Z,39.70
2018-05-12T05:15:30.235Z,42.83
2018-05-12T05:16:32.038Z,49.03
2018-05-12T05:17:33.833Z,41.53
2018-05-12T05:18:34.904Z,39.25
2018-05-12T05:19:35.984Z,46.28
2018-05-12T05:20:37.808Z,40.00
2018-05-12T05:21:38.880Z,32.83
2018-05-12T05:22:40.684Z,45.75
2018-05-12T05:23:41.779Z,50.00
2018-05-12T05:24:42.858Z,35.58
2018-05-12T05:25:43.939Z,47.58
2018-05-12T05:26:45.019Z,42.25
2018-05-12T05:27:46.087Z,42.10
2018-05-12T05:28:47.133Z,45.78
2018-05-12T05:29:48.211Z,45.85
2018-05-12T05:30:49.294Z,44.30
2018-05-12T05:31:50.361Z,42.20
2018-05-12T05:32:51.436Z,46.83
2018-05-12T05:33:52.519Z,45.80
2018-05-12T05:34:53.586Z,50.78
2018-05-12T05:35:54.646Z,45.90
2018-05-12T05:36:55.722Z,45.72
2018-05-12T05:37:56.787Z,47.28
2018-05-12T05:38:57.886Z,42.22
2018-05-12T05:39:59.699Z,45.47
2018-05-12T05:41:00.751Z,52.70
2018-05-12T05:42:01.811Z,47.50
2018-05-12T05:43:02.928Z,41.10
2018-05-12T05:44:04.760Z,37.78
2018-05-12T05:45:05.818Z,40.47
2018-05-12T05:46:06.878Z,45.38
2018-05-12T05:47:07.950Z,60.90
2018-05-12T05:48:09.022Z,41.72
2018-05-12T05:49:10.832Z,39.95
2018-05-12T05:50:11.962Z,47.58
2018-05-12T05:51:13.024Z,45.53
2018-05-12T05:52:14.826Z,42.17
2018-05-12T05:53:15.891Z,49.05
2018-05-12T05:54:16.958Z,39.50
2018-05-12T05:55:18.025Z,37.33
2018-05-12T05:56:19.120Z,37.05
2018-05-12T05:57:20.204Z,45.67
2018-05-12T05:58:21.276Z,42.45
2018-05-12T05:59:22.351Z,46.60
2018-05-12T06:00:23.514Z,47.80
2018-05-12T06:01:24.610Z,49.80
2018-05-12T06:02:25.684Z,36.58
2018-05-12T06:03:26.747Z,43.92
2018-05-12T06:04:27.827Z,49.33
2018-05-12T06:05:28.905Z,40.72
2018-05-12T06:06:29.983Z,41.53
2018-05-12T06:07:31.050Z,38.70
2018-05-12T06:08:32.111Z,37.92
2018-05-12T06:09:33.191Z,38.38
2018-05-12T06:10:34.270Z,37.90
2018-05-12T06:11:35.387Z,41.03
2018-05-12T06:12:37.188Z,41.13
2018-05-12T06:13:38.259Z,41.97
2018-05-12T06:14:40.175Z,41.80
2018-05-12T06:15:41.249Z,46.97
2018-05-12T06:16:42.368Z,36.42
2018-05-12T06:17:43.486Z,42.75
2018-05-12T06:18:44.597Z,47.05
2018-05-12T06:19:45.695Z,42.10
2018-05-12T06:20:46.831Z,48.30
2018-05-12T06:21:47.931Z,52.55
2018-05-12T06:22:49.070Z,44.83
2018-05-12T06:23:51.832Z,52.42
2018-05-12T06:24:52.957Z,38.13
2018-05-12T06:25:54.047Z,59.03
2018-05-12T06:26:55.118Z,48.08
2018-05-12T06:27:56.197Z,39.92
2018-05-12T06:28:57.317Z,56.50
2018-05-12T06:29:59.131Z,40.25
2018-05-12T06:31:00.224Z,46.33
2018-05-12T06:32:02.047Z,50.40
2018-05-12T06:33:03.893Z,41.60
2018-05-12T06:34:05.697Z,37.92
2018-05-12T06:35:06.763Z,37.13
2018-05-12T06:36:08.020Z,41.15
2018-05-12T06:37:09.155Z,43.15
2018-05-12T06:38:10.232Z,42.53
2018-05-12T06:39:11.315Z,42.38
2018-05-12T06:40:13.120Z,40.33
2018-05-12T06:41:14.199Z,53.58
2018-05-12T06:42:15.283Z,56.30
2018-05-12T06:43:16.396Z,57.53
2018-05-12T06:44:17.486Z,45.47
2018-05-12T06:45:19.515Z,44.40
2018-05-12T06:46:20.684Z,44.65
2018-05-12T06:47:22.495Z,49.25
2018-05-12T06:48:23.569Z,40.58
2018-05-12T06:49:25.375Z,40.88
2018-05-12T06:50:26.472Z,42.85
2018-05-12T06:51:27.567Z,38.30
2018-05-12T06:52:29.639Z,38.20
2018-05-12T06:53:31.455Z,47.60
2018-05-12T06:54:32.538Z,39.08
2018-05-12T06:55:33.599Z,47.80
2018-05-12T06:56:34.679Z,43.60
2018-05-12T06:57:36.480Z,50.08
2018-05-12T06:58:37.575Z,43.45
2018-05-12T06:59:38.639Z,44.67
2018-05-12T07:00:39.688Z,49.70
2018-05-12T07:01:40.798Z,41.47
2018-05-12T07:02:41.853Z,46.15
2018-05-12T07:03:42.911Z,40.08
2018-05-12T07:04:43.975Z,40.00
2018-05-12T07:05:45.038Z,55.97
2018-05-12T07:06:46.116Z,33.20
2018-05-12T07:07:47.920Z,43.42
2018-05-12T07:08:48.999Z,32.83
2018-05-12T07:09:50.818Z,38.78
2018-05-12T07:10:51.881Z,31.15
2018-05-12T07:11:53.695Z,51.80
2018-05-12T07:12:54.756Z,36.28
2018-05-12T07:13:55.839Z,38.97
2018-05-12T07:14:56.907Z,38.25
2018-05-12T07:15:57.991Z,38.00
2018-05-12T07:16:59.071Z,41.80
2018-05-12T07:18:00.123Z,43.05
2018-05-12T07:19:01.950Z,42.22
2018-05-12T07:20:03.051Z,41.25
2018-05-12T07:21:04.131Z,43.33
2018-05-12T07:22:05.978Z,41.60
2018-05-12T07:23:07.044Z,42.30
2018-05-12T07:24:08.207Z,42.10
2018-05-12T07:25:09.195Z,38.45
2018-05-12T07:26:10.271Z,36.95
2018-05-12T07:27:11.359Z,32.00
2018-05-12T07:28:12.443Z,38.25
2018-05-12T07:29:13.507Z,40.20
2018-05-12T07:30:14.579Z,39.40
2018-05-12T07:31:15.646Z,39.22
2018-05-12T07:32:16.768Z,42.53
2018-05-12T07:33:17.819Z,31.90
2018-05-12T07:34:18.888Z,35.67
2018-05-12T07:35:19.938Z,42.28
2018-05-12T07:36:21.067Z,42.05
2018-05-12T07:37:22.131Z,33.25
2018-05-12T07:38:23.196Z,33.22
2018-05-12T07:40:16.893Z,30.95
2018-05-12T07:41:18.012Z,50.83
2018-05-12T07:42:19.132Z,39.55
2018-05-12T07:43:20.949Z,32.70
2018-05-12T07:44:22.031Z,37.10
2018-05-12T07:45:23.102Z,36.45
2018-05-12T07:46:24.191Z,30.95
2018-05-12T07:47:25.995Z,38.28
2018-05-12T07:48:27.069Z,45.72
2018-05-12T07:49:28.863Z,40.85
2018-05-12T07:50:29.918Z,46.80
2018-05-12T07:51:31.808Z,34.47
2018-05-12T07:52:32.868Z,36.50
2018-05-12T07:53:33.937Z,34.17
2018-05-12T07:54:35.783Z,34.45
2018-05-12T07:55:36.839Z,31.33
2018-05-12T07:56:38.646Z,34.85
2018-05-12T07:57:39.698Z,31.33
2018-05-12T07:58:40.775Z,30.92
2018-05-12T07:59:41.843Z,30.35
2018-05-12T08:00:42.927Z,30.80
2018-05-12T08:01:44.024Z,46.03
2018-05-12T08:02:45.128Z,35.58
2018-05-12T08:03:46.222Z,36.75
2018-05-12T08:04:48.027Z,32.35
2018-05-12T08:05:49.087Z,40.55
2018-05-12T08:06:50.903Z,34.55
2018-05-12T08:07:51.988Z,37.80
2018-05-12T08:08:53.056Z,35.83
2018-05-12T08:09:54.107Z,34.90
2018-05-12T08:10:55.180Z,38.05
2018-05-12T08:11:57.024Z,37.10
2018-05-12T08:12:58.139Z,33.78
2018-05-12T08:13:59.199Z,31.45
2018-05-12T08:15:00.279Z,32.60
2018-05-12T08:16:01.378Z,30.35
2018-05-12T08:17:02.475Z,44.13
2018-05-12T08:18:03.871Z,37.85
2018-05-12T08:19:05.034Z,36.80
2018-05-12T08:20:06.086Z,37.38
2018-05-12T08:21:07.163Z,29.85
2018-05-12T08:22:08.221Z,35.13
2018-05-12T08:23:09.305Z,35.42
2018-05-12T08:24:10.372Z,41.22
2018-05-12T08:25:11.445Z,33.33
2018-05-12T08:26:13.282Z,43.33
2018-05-12T08:27:14.352Z,34.38
2018-05-12T08:28:15.430Z,36.97
2018-05-12T08:29:16.499Z,35.22
2018-05-12T08:30:17.561Z,30.85
2018-05-12T08:31:18.617Z,31.15
2018-05-12T08:32:19.686Z,29.60
2018-05-12T08:33:20.791Z,34.83
2018-05-12T08:34:21.923Z,36.47
2018-05-12T08:35:23.088Z,39.25
2018-05-12T08:36:24.349Z,35.20
2018-05-12T08:37:25.517Z,42.97
2018-05-12T08:38:26.615Z,32.00
2018-05-12T08:39:27.748Z,32.33
2018-05-12T08:40:29.195Z,40.28
2018-05-12T08:41:30.251Z,39.65
2018-05-12T08:42:31.465Z,34.45
2018-05-12T08:43:33.704Z,32.03
2018-05-12T08:44:34.849Z,29.87
2018-05-12T08:45:36.227Z,30.20
2018-05-12T08:46:37.443Z,31.30
2018-05-12T08:47:38.499Z,32.58
2018-05-12T08:48:39.564Z,31.85
2018-05-12T08:49:40.625Z,32.50
2018-05-12T08:50:41.702Z,37.58
2018-05-12T08:51:42.785Z,37.30
2018-05-12T08:52:43.863Z,42.03
2018-05-12T08:53:44.948Z,32.33
2018-05-12T08:54:46.001Z,48.28
2018-05-12T08:55:47.062Z,36.80
2018-05-12T08:56:48.140Z,29.60
2018-05-12T08:57:49.207Z,32.35
2018-05-12T08:58:50.286Z,31.73
2018-05-12T08:59:52.099Z,34.35
2018-05-12T09:00:53.253Z,34.38
2018-05-12T09:01:54.424Z,32.85
2018-05-12T09:02:56.505Z,33.47
2018-05-12T09:03:57.566Z,27.85
2018-05-12T09:04:58.855Z,31.40
2018-05-12T09:05:59.998Z,29.27
2018-05-12T09:07:01.173Z,29.42
2018-05-12T09:08:02.315Z,31.15
2018-05-12T09:09:03.392Z,27.15
2018-05-12T09:10:04.626Z,32.72
2018-05-12T09:11:05.988Z,33.00
2018-05-12T09:12:07.047Z,25.20
2018-05-12T09:13:08.774Z,40.80
2018-05-12T09:14:09.982Z,32.00
2018-05-12T09:15:18.100Z,29.58
2018-05-12T09:16:19.259Z,30.40
2018-05-12T09:17:21.164Z,31.83
2018-05-12T09:18:22.452Z,35.08
2018-05-12T09:19:23.841Z,38.80
2018-05-12T09:20:25.931Z,35.80
2018-05-12T09:21:27.058Z,25.15
2018-05-12T09:22:28.349Z,26.17
2018-05-12T09:23:29.637Z,24.35
2018-05-12T09:24:31.471Z,29.50
2018-05-12T09:25:33.436Z,35.25
2018-05-12T09:26:34.483Z,24.90
2018-05-12T09:27:35.804Z,35.95
2018-05-12T09:28:37.083Z,31.15
2018-05-12T09:29:38.212Z,33.25
2018-05-12T09:30:39.385Z,30.92
2018-05-12T09:31:40.507Z,31.98
2018-05-12T09:32:41.590Z,25.85
2018-05-12T09:33:44.249Z,28.98
2018-05-12T09:34:45.471Z,25.90
2018-05-12T09:35:46.741Z,30.17
2018-05-12T09:36:47.836Z,26.08
2018-05-12T09:37:49.076Z,33.53
2018-05-12T09:38:51.075Z,30.40
2018-05-12T09:39:52.190Z,32.55
2018-05-12T09:40:53.341Z,34.42
2018-05-12T09:41:54.493Z,28.45
2018-05-12T09:42:55.714Z,26.80
2018-05-12T09:43:56.868Z,22.02
2018-05-12T09:44:58.835Z,29.42
2018-05-12T09:45:59.926Z,28.45
2018-05-12T09:47:00.971Z,27.33
2018-05-12T09:48:02.811Z,26.42
2018-05-12T09:49:04.619Z,23.87
2018-05-12T09:50:05.715Z,24.83
2018-05-12T09:51:06.794Z,20.73
2018-05-12T09:52:07.883Z,26.23
2018-05-12T09:53:08.954Z,27.33
2018-05-12T09:54:10.024Z,30.17
2018-05-12T09:55:11.157Z,34.70
2018-05-12T09:56:12.255Z,34.17
2018-05-12T09:57:13.323Z,27.62
2018-05-12T09:58:14.424Z,22.55
2018-05-12T09:59:15.499Z,28.05
2018-05-12T10:00:16.601Z,32.20
2018-05-12T10:01:18.436Z,31.65
2018-05-12T10:02:19.491Z,31.17
2018-05-12T10:03:20.569Z,28.30
2018-05-12T10:04:21.647Z,22.35
2018-05-12T10:05:23.467Z,22.50
2018-05-12T10:06:24.547Z,22.92
2018-05-12T10:07:25.630Z,24.10
2018-05-12T10:08:26.710Z,24.80
2018-05-12T10:09:28.540Z,30.62
2018-05-12T10:10:29.606Z,31.10
2018-05-12T10:11:30.675Z,33.47
2018-05-12T10:12:31.735Z,28.38
2018-05-12T10:13:32.835Z,25.42
2018-05-12T10:14:33.918Z,25.55
2018-05-12T10:15:35.827Z,27.23
2018-05-12T10:16:36.815Z,21.70
2018-05-12T10:17:37.887Z,26.92
2018-05-12T10:18:38.947Z,27.90
2018-05-12T10:19:40.019Z,24.50
2018-05-12T10:20:41.107Z,23.80
2018-05-12T10:21:42.178Z,27.23
2018-05-12T10:22:43.275Z,21.92
2018-05-12T10:23:44.336Z,31.77
2018-05-12T10:24:45.418Z,23.42
2018-05-12T10:25:46.537Z,18.98
2018-05-12T10:26:47.608Z,21.83
2018-05-12T10:27:48.686Z,19.50
2018-05-12T10:28:49.752Z,24.10
2018-05-12T10:29:50.827Z,20.73
2018-05-12T10:30:52.618Z,23.92
2018-05-12T10:31:53.687Z,21.67
2018-05-12T10:32:54.746Z,18.12
2018-05-12T10:33:56.568Z,16.40
2018-05-12T10:34:57.631Z,19.23
2018-05-12T10:35:58.690Z,21.50
2018-05-12T10:36:59.759Z,18.30
2018-05-12T10:38:00.833Z,19.87
2018-05-12T10:39:01.958Z,19.73
2018-05-12T10:40:03.047Z,16.23
2018-05-12T10:41:04.127Z,17.75
2018-05-12T10:42:05.183Z,22.35
2018-05-12T10:43:06.259Z,20.75
2018-05-12T10:44:07.326Z,17.10
2018-05-12T10:45:08.387Z,18.62
2018-05-12T10:46:09.437Z,19.42
2018-05-12T10:47:10.508Z,14.18
2018-05-12T10:48:11.615Z,18.70
2018-05-12T10:49:13.415Z,13.02
2018-05-12T10:50:14.493Z,11.82
2018-05-12T10:51:15.541Z,15.75
2018-05-12T10:52:17.338Z,11.73
2018-05-12T10:53:18.419Z,12.98
2018-05-12T10:54:19.643Z,16.98
2018-05-12T10:55:20.893Z,16.85
2018-05-12T10:56:22.777Z,16.35
2018-05-12T10:57:23.991Z,16.55
2018-05-12T10:58:25.208Z,19.92
2018-05-12T10:59:26.334Z,17.90
2018-05-12T11:00:27.412Z,22.77
2018-05-12T11:01:28.597Z,22.05
2018-05-12T11:02:32.312Z,17.10
2018-05-12T11:03:34.669Z,19.73
2018-05-12T11:04:35.989Z,18.70
2018-05-12T11:05:37.987Z,21.58
2018-05-12T11:06:39.253Z,19.70
2018-05-12T11:07:40.495Z,23.65
2018-05-12T11:08:41.582Z,16.55
2018-05-12T11:09:42.773Z,19.10
2018-05-12T11:10:43.983Z,15.75
2018-05-12T11:11:45.684Z,21.23
2018-05-12T11:12:46.844Z,19.37
2018-05-12T11:13:48.164Z,21.20
2018-05-12T11:14:50.114Z,19.02
2018-05-12T11:15:52.126Z,18.12
2018-05-12T11:16:53.306Z,18.00
2018-05-12T11:17:54.433Z,14.75
2018-05-12T11:18:55.499Z,18.00
2018-05-12T11:19:56.596Z,14.77
2018-05-12T11:20:57.693Z,19.98
2018-05-12T11:21:58.884Z,15.55
2018-05-12T11:22:59.848Z,16.60
2018-05-12T11:24:00.938Z,15.77
2018-05-12T11:25:02.783Z,16.20
2018-05-12T11:26:03.851Z,16.95
2018-05-12T11:27:04.915Z,15.68
2018-05-12T11:28:05.975Z,16.50
2018-05-12T11:29:07.089Z,16.45
2018-05-12T11:30:08.163Z,12.52
2018-05-12T11:31:09.264Z,16.50
2018-05-12T11:32:10.423Z,13.40
2018-05-12T11:33:11.436Z,14.18
2018-05-12T11:34:13.246Z,15.88
2018-05-12T11:35:14.301Z,15.30
2018-05-12T11:36:15.372Z,15.38
2018-05-12T11:37:16.452Z,19.55
2018-05-12T11:38:17.514Z,13.45
2018-05-12T11:39:18.579Z,14.70
2018-05-12T11:40:19.634Z,12.43
2018-05-12T11:41:20.693Z,12.18
2018-05-12T11:42:21.754Z,13.85
2018-05-12T11:43:22.806Z,14.10
2018-05-12T11:44:23.907Z,12.90
2018-05-12T11:45:25.728Z,14.43
2018-05-12T11:46:27.556Z,13.77
2018-05-12T11:47:28.616Z,15.82
2018-05-12T11:48:29.663Z,9.90
2018-05-12T11:49:31.471Z,14.00
2018-05-12T11:50:32.567Z,12.10
2018-05-12T11:51:33.638Z,12.25
2018-05-12T11:52:34.713Z,12.15
2018-05-12T11:53:35.767Z,13.55
2018-05-12T11:54:36.828Z,12.80
2018-05-12T11:55:37.906Z,15.00
2018-05-12T11:56:39.713Z,10.35
2018-05-12T11:57:40.795Z,11.00
2018-05-12T11:58:42.574Z,11.05
2018-05-12T11:59:43.631Z,13.43
2018-05-12T12:00:44.709Z,9.82
2018-05-12T12:01:46.514Z,13.02
2018-05-12T12:02:48.358Z,12.57
2018-05-12T12:03:49.505Z,15.32
2018-05-12T12:04:50.515Z,13.75
2018-05-12T12:05:51.599Z,12.60
2018-05-12T12:06:53.414Z,15.95
2018-05-12T12:07:54.487Z,14.30
2018-05-12T12:08:56.274Z,13.45
2018-05-12T12:09:57.331Z,11.35
2018-05-12T12:10:58.446Z,11.75
2018-05-12T12:11:59.517Z,12.02
2018-05-12T12:13:00.585Z,11.98
2018-05-12T12:14:01.656Z,10.18
2018-05-12T12:15:02.720Z,13.00
2018-05-12T12:16:03.790Z,9.55
2018-05-12T12:17:04.876Z,14.15
2018-05-12T12:18:05.951Z,12.43
2018-05-12T12:19:06.999Z,11.43
2018-05-12T12:20:08.088Z,13.15
2018-05-12T12:21:09.179Z,9.15
2018-05-12T12:22:10.297Z,12.75
2018-05-12T12:23:11.386Z,10.15
2018-05-12T12:24:12.449Z,14.80
2018-05-12T12:25:13.520Z,11.55
2018-05-12T12:26:14.589Z,12.63
2018-05-12T12:27:15.658Z,11.82
2018-05-12T12:28:16.739Z,12.65
2018-05-12T12:29:17.827Z,11.70
2018-05-12T12:30:18.887Z,10.02
2018-05-12T12:31:19.957Z,11.77
2018-05-12T12:32:21.071Z,11.18
2018-05-12T12:33:22.200Z,14.57
2018-05-12T12:34:23.199Z,14.82
2018-05-12T12:35:24.272Z,14.00
2018-05-12T12:36:25.351Z,9.98
2018-05-12T12:37:26.439Z,12.70
2018-05-12T12:38:27.507Z,10.15
2018-05-12T12:39:28.563Z,12.40
2018-05-12T12:40:29.631Z,11.60
2018-05-12T12:41:31.458Z,13.00
2018-05-12T12:42:32.535Z,10.55
2018-05-12T12:43:33.611Z,13.90
2018-05-12T12:44:34.687Z,9.65
2018-05-12T12:45:35.753Z,12.23
2018-05-12T12:46:36.848Z,10.90
2018-05-12T12:47:37.918Z,11.65
2018-05-12T12:48:39.000Z,10.30
2018-05-12T12:49:40.800Z,12.63
2018-05-12T12:50:41.871Z,12.37
2018-05-12T12:51:43.700Z,12.40
2018-05-12T12:52:44.766Z,12.25
2018-05-12T12:53:45.858Z,11.43
2018-05-12T12:54:46.944Z,14.95
2018-05-12T12:55:48.044Z,10.77
2018-05-12T12:56:49.120Z,11.23
2018-05-12T12:57:50.184Z,11.75
2018-05-12T12:58:51.268Z,11.40
2018-05-12T12:59:52.356Z,9.98
2018-05-12T13:00:53.442Z,11.23
2018-05-12T13:01:54.511Z,11.15
2018-05-12T13:02:55.580Z,11.40
2018-05-12T13:03:56.630Z,12.25
2018-05-12T13:04:58.435Z,12.15
2018-05-12T13:05:59.519Z,12.35
2018-05-12T13:07:00.579Z,11.73
2018-05-12T13:08:01.647Z,13.32
2018-05-12T13:09:04.481Z,12.73
2018-05-12T13:10:05.547Z,11.98